Time;durP1;ratioP1;P1;durP2;ratioP2;P2;SDS_P1;SDS_P2;PMS_P1;PMS_P2;Temp;Humidity;BMP_temperature;BMP_pressure;BME280_temperature;BME280_humidity;BME280_pressure;Samples;Min_cycle;Max_cycle;Signal;HPM_P1;HPM_P2
2023/01/29 00:00:19;;;;;;;25.50;13.43;;;;;;;2.47;88.05;103065.56;6163086;23;20013;-79
2023/01/29 00:02:45;;;;;;;20.27;13.23;;;;;;;2.47;88.01;103060.31;6189156;23;20024;-79
2023/01/29 00:05:12;;;;;;;22.20;13.30;;;;;;;2.47;88.27;103058.47;6189230;23;20017;-79
2023/01/29 00:07:54;;;;;;;24.63;13.25;;;;;;;2.49;88.30;103055.50;6165582;23;20021;-80
2023/01/29 00:10:21;;;;;;;24.58;12.85;;;;;;;2.50;88.36;103049.91;6189227;23;20470;-80
2023/01/29 00:12:47;;;;;;;21.48;13.48;;;;;;;2.49;88.29;103042.34;6189358;23;20014;-79
2023/01/29 00:15:14;;;;;;;17.67;12.32;;;;;;;2.47;88.32;103036.66;6189070;23;20018;-79
2023/01/29 00:17:40;;;;;;;21.77;13.23;;;;;;;2.46;88.60;103035.13;6189191;23;20025;-79
2023/01/29 00:20:08;;;;;;;23.88;13.63;;;;;;;2.46;88.50;103021.97;6189913;23;20018;-79
2023/01/29 00:22:35;;;;;;;25.77;13.25;;;;;;;2.45;88.58;103015.94;6188626;23;20021;-79
2023/01/29 00:25:02;;;;;;;19.40;13.02;;;;;;;2.45;88.42;103015.94;6189625;23;20064;-79
2023/01/29 00:27:28;;;;;;;22.33;13.63;;;;;;;2.47;88.61;103013.00;6162393;23;20029;-79
2023/01/29 00:30:08;;;;;;;19.85;13.55;;;;;;;2.46;88.72;103006.97;6138091;23;20024;-80
2023/01/29 00:32:35;;;;;;;21.45;14.38;;;;;;;2.46;88.55;103003.56;6162489;23;20028;-80
2023/01/29 00:35:02;;;;;;;24.10;14.18;;;;;;;2.47;88.49;103008.50;6189473;23;20014;-80
2023/01/29 00:37:29;;;;;;;23.77;13.68;;;;;;;2.47;88.41;103013.75;6188200;23;20022;-80
2023/01/29 00:39:56;;;;;;;21.35;13.60;;;;;;;2.46;88.51;103016.72;6162580;23;20018;-80
2023/01/29 00:45:10;;;;;;;24.02;13.85;;;;;;;2.46;88.53;103019.34;6163071;23;20411;-79
2023/01/29 00:47:37;;;;;;;22.15;13.70;;;;;;;2.45;88.66;103013.31;6189063;23;20466;-79
2023/01/29 00:50:10;;;;;;;24.25;12.95;;;;;;;2.46;88.63;103008.84;6189419;23;20854;-80
2023/01/29 00:52:37;;;;;;;23.85;13.15;;;;;;;2.46;88.60;103001.72;6188408;23;20009;-79
2023/01/29 00:55:05;;;;;;;26.50;15.05;;;;;;;2.48;88.82;103010.03;6189035;23;20085;-80
2023/01/29 00:57:33;;;;;;;18.48;13.55;;;;;;;2.50;88.71;103001.81;6188778;23;20029;-80
2023/01/29 01:00:00;;;;;;;20.85;13.40;;;;;;;2.49;88.76;103000.28;6162261;23;20155;-80
2023/01/29 01:05:18;;;;;;;25.33;14.00;;;;;;;2.48;88.79;102998.75;6188200;23;20021;-80
2023/01/29 01:07:50;;;;;;;20.67;13.13;;;;;;;2.48;88.90;103004.00;6162054;23;20044;-79
2023/01/29 01:10:30;;;;;;;20.63;13.25;;;;;;;2.48;88.82;102999.53;6188554;23;20047;-80
2023/01/29 01:12:59;;;;;;;22.30;13.48;;;;;;;2.48;89.02;102996.91;6162263;23;20013;-80
2023/01/29 01:15:29;;;;;;;18.77;12.68;;;;;;;2.46;88.87;102993.81;6188839;23;20474;-80
2023/01/29 01:17:58;;;;;;;20.60;13.02;;;;;;;2.46;88.88;102985.94;6189041;23;20021;-80
2023/01/29 01:20:27;;;;;;;18.70;12.50;;;;;;;2.45;89.09;102989.66;6161365;23;20534;-80
2023/01/29 01:22:54;;;;;;;17.30;12.43;;;;;;;2.45;89.12;102978.38;6189141;23;20515;-80
2023/01/29 01:25:23;;;;;;;18.85;12.50;;;;;;;2.47;88.99;102986.69;6188825;23;20089;-80
2023/01/29 01:27:53;;;;;;;17.20;12.32;;;;;;;2.46;89.10;102988.56;6137555;23;20105;-80
2023/01/29 01:30:21;;;;;;;25.50;12.73;;;;;;;2.48;89.06;102990.88;6162418;23;20017;-79
2023/01/29 01:32:48;;;;;;;21.85;12.27;;;;;;;2.48;89.01;102990.88;6162073;23;20428;-80
2023/01/29 01:35:14;;;;;;;18.45;12.90;;;;;;;2.47;89.16;102995.34;6188326;23;20014;-80
2023/01/29 01:37:41;;;;;;;20.65;12.63;;;;;;;2.48;89.04;103002.16;6162281;23;20044;-80
2023/01/29 01:40:19;;;;;;;18.42;12.23;;;;;;;2.50;89.07;103002.59;6188803;23;20064;-80
2023/01/29 01:42:51;;;;;;;18.35;11.90;;;;;;;2.49;88.99;102997.66;6162747;23;20021;-80
2023/01/29 01:45:18;;;;;;;;;;;;;;;2.48;88.99;103006.66;6189396;23;20017;-80
2023/01/29 01:47:51;;;;;;;15.50;10.32;;;;;;;2.48;88.98;103004.78;6188812;23;19976;-80
2023/01/29 01:50:23;;;;;;;18.40;11.88;;;;;;;2.49;89.31;103005.53;6161486;23;20029;-80
2023/01/29 01:52:54;;;;;;;;;;;;;;;2.49;88.96;103000.28;6189579;23;20017;-80
2023/01/29 01:55:24;;;;;;;17.02;10.73;;;;;;;2.47;89.00;103000.63;6188930;23;19932;-80
2023/01/29 01:57:56;;;;;;;19.88;12.00;;;;;;;2.47;89.04;103007.72;6188484;23;20028;-80
2023/01/29 02:00:25;;;;;;;23.20;12.48;;;;;;;2.46;89.08;103003.56;6187038;23;20076;-80
2023/01/29 02:11:24;;;;;;;17.08;11.45;;;;;;;2.49;89.17;102992.41;6184872;23;20028;-79
2023/01/29 02:13:52;;;;;;;17.98;11.52;;;;;;;2.49;89.01;103003.69;6186665;23;20029;-79
2023/01/29 02:16:24;;;;;;;21.77;12.10;;;;;;;2.47;89.27;102992.72;6188748;23;20427;-79
2023/01/29 02:18:51;;;;;;;20.98;12.50;;;;;;;2.47;89.19;102994.59;6185718;23;20043;-81
2023/01/29 02:21:35;;;;;;;19.85;12.15;;;;;;;2.43;89.26;102997.09;6185930;23;20076;-79
2023/01/29 02:24:32;;;;;;;17.58;12.32;;;;;;;2.45;89.42;102991.53;6187496;23;20018;-79
2023/01/29 02:27:15;;;;;;;23.02;12.45;;;;;;;2.45;89.25;102992.28;6188583;23;20036;-79
2023/01/29 02:30:08;;;;;;;18.30;11.80;;;;;;;2.43;89.47;103006.84;6186693;23;20013;-81
2023/01/29 02:32:53;;;;;;;19.63;12.15;;;;;;;2.40;89.52;102992.50;6188070;23;20507;-79
2023/01/29 02:35:30;;;;;;;20.85;12.27;;;;;;;2.40;89.40;103000.38;6186737;23;20018;-80
2023/01/29 02:38:23;;;;;;;20.90;12.30;;;;;;;2.40;89.30;103004.91;6186764;23;20412;-79
2023/01/29 02:41:09;;;;;;;21.35;12.60;;;;;;;2.42;89.49;103015.84;6188194;23;20022;-79
2023/01/29 02:44:06;;;;;;;21.85;12.95;;;;;;;2.40;89.22;103012.78;6187155;23;20444;-79
2023/01/29 02:46:50;;;;;;;20.13;13.20;;;;;;;2.39;89.08;103011.25;6186721;23;20045;-79
2023/01/29 02:49:30;;;;;;;24.48;12.40;;;;;;;2.38;89.36;103021.00;6186451;23;20355;-79
2023/01/29 02:52:35;;;;;;;19.95;13.15;;;;;;;2.39;89.30;103025.19;6188211;23;20053;-79
2023/01/29 02:55:20;;;;;;;20.75;12.52;;;;;;;2.39;89.43;103021.78;6127435;23;20076;-79
2023/01/29 02:57:52;;;;;;;22.55;13.63;;;;;;;2.40;89.72;103012.78;6162058;23;20014;-79
2023/01/29 03:00:42;;;;;;;24.10;13.02;;;;;;;2.40;89.57;103007.53;6162027;23;20411;-80
2023/01/29 03:03:24;;;;;;;23.52;12.45;;;;;;;2.39;89.69;103012.03;6163899;23;20448;-80
2023/01/29 03:06:01;;;;;;;20.50;12.40;;;;;;;2.41;89.54;103009.03;6191583;23;20031;-79
2023/01/29 03:08:41;;;;;;;20.33;12.88;;;;;;;2.39;89.70;103006.78;6163403;23;20029;-80
2023/01/29 03:11:14;;;;;;;20.90;13.52;;;;;;;2.39;89.70;103006.78;6162109;23;20021;-79
2023/01/29 03:13:44;;;;;;;22.55;14.80;;;;;;;2.40;89.86;103010.16;6161518;23;20077;-78
2023/01/29 03:16:20;;;;;;;19.15;13.00;;;;;;;2.41;89.75;102998.53;6160713;23;20474;-81
2023/01/29 03:18:54;;;;;;;20.25;13.40;;;;;;;2.42;89.64;102992.19;6161480;23;20022;-80
2023/01/29 03:21:53;;;;;;;21.35;13.82;;;;;;;2.41;89.87;102990.66;6161373;23;20073;-82
2023/01/29 03:33:34;;;;;;;24.08;13.88;;;;;;;2.42;89.82;102976.41;6163227;23;20186;-81
2023/01/29 03:36:07;;;;;;;21.50;12.85;;;;;;;2.43;89.89;102970.81;6162696;23;20026;-81
2023/01/29 03:38:34;;;;;;;19.48;13.43;;;;;;;2.40;90.04;102960.97;6138596;23;20035;-80
2023/01/29 03:41:14;;;;;;;25.85;13.98;;;;;;;2.41;90.17;102954.59;6162790;23;20018;-82
2023/01/29 03:44:00;;;;;;;26.80;15.55;;;;;;;2.40;89.85;102950.44;6162858;23;20022;-81
2023/01/29 03:46:37;;;;;;;24.15;14.65;;;;;;;2.42;90.13;102950.13;6162042;23;20026;-81
2023/01/29 03:49:25;;;;;;;23.85;14.23;;;;;;;2.42;90.30;102952.75;6189349;23;20018;-81
2023/01/29 03:52:17;;;;;;;22.95;14.93;;;;;;;2.43;90.25;102941.13;6176409;23;20458;-81
2023/01/29 03:55:17;;;;;;;23.43;14.67;;;;;;;2.41;90.37;102945.94;6189479;23;20014;-81
2023/01/29 03:57:59;;;;;;;25.00;14.55;;;;;;;2.41;90.42;102951.97;6187267;23;20329;-81
2023/01/29 04:00:29;;;;;;;25.80;15.73;;;;;;;2.40;90.40;102953.06;6162466;23;20031;-81
2023/01/29 04:03:16;;;;;;;26.27;15.73;;;;;;;2.40;90.38;102947.06;6187312;23;20044;-81
2023/01/29 04:06:08;;;;;;;26.05;14.77;;;;;;;2.40;90.28;102942.56;6187482;23;20017;-81
2023/01/29 04:08:49;;;;;;;28.33;15.40;;;;;;;2.44;90.49;102947.94;6187120;23;20429;-81
2023/01/29 04:11:18;;;;;;;26.77;15.02;;;;;;;2.42;90.43;102934.34;6187306;23;20096;-81
2023/01/29 04:13:47;;;;;;;22.88;14.82;;;;;;;2.41;90.29;102930.94;6186464;23;20041;-80
2023/01/29 04:16:23;;;;;;;25.30;15.13;;;;;;;2.40;90.20;102928.69;6187629;23;20025;-81
2023/01/29 04:18:59;;;;;;;22.92;14.68;;;;;;;2.39;90.27;102919.25;6164507;23;20022;-80
2023/01/29 04:21:31;;;;;;;22.42;14.13;;;;;;;2.38;90.35;102926.38;6187620;23;20072;-80
2023/01/29 04:23:58;;;;;;;26.52;15.48;;;;;;;2.34;90.02;102925.50;6162436;23;20033;-80
2023/01/29 04:27:02;;;;;;;25.13;14.82;;;;;;;2.34;90.00;102925.50;6187278;23;20352;-80
2023/01/29 04:30:02;;;;;;;26.17;14.90;;;;;;;2.35;89.97;102921.78;6186718;23;20033;-80
2023/01/29 04:32:46;;;;;;;23.80;14.95;;;;;;;2.34;89.78;102930.75;6169296;23;20108;-80
2023/01/29 04:35:35;;;;;;;22.30;14.57;;;;;;;2.33;89.91;102919.47;6187679;23;20048;-79
2023/01/29 04:38:11;;;;;;;26.23;14.27;;;;;;;2.33;89.83;102924.72;6187719;23;20014;-80
2023/01/29 04:41:04;;;;;;;24.65;15.15;;;;;;;2.30;89.71;102916.72;6189239;23;20022;-80
2023/01/29 04:43:53;;;;;;;28.52;15.77;;;;;;;2.29;89.65;102918.59;6186702;23;20018;-80
2023/01/29 04:46:32;;;;;;;26.75;15.60;;;;;;;2.26;89.48;102911.38;6189197;23;20021;-80
2023/01/29 04:49:16;;;;;;;21.52;13.82;;;;;;;2.27;89.50;102915.53;6189047;23;20372;-80
2023/01/29 04:51:48;;;;;;;22.80;14.93;;;;;;;2.25;89.39;102915.09;6188998;23;20028;-80
2023/01/29 04:54:18;;;;;;;;;;;;;;;2.23;89.42;102904.13;6163150;23;20017;-80
2023/01/29 04:57:15;;;;;;;23.13;13.77;;;;;;;2.26;89.44;102902.72;6189237;23;20396;-80
2023/01/29 04:59:49;;;;;;;23.98;14.60;;;;;;;2.28;89.58;102900.53;6162883;23;20026;-79
2023/01/29 05:02:18;;;;;;;24.15;13.93;;;;;;;2.28;89.74;102896.03;6189258;23;20017;-79
2023/01/29 05:04:45;;;;;;;30.38;15.85;;;;;;;2.26;89.18;102895.59;6188893;23;20452;-80
2023/01/29 05:07:14;;;;;;;24.05;15.43;;;;;;;2.26;89.21;102902.72;6187136;23;20028;-79
2023/01/29 05:09:44;;;;;;;27.92;15.13;;;;;;;2.26;89.26;102894.84;6162491;23;20101;-80
2023/01/29 05:12:13;;;;;;;25.13;14.82;;;;;;;2.25;89.04;102894.06;6188344;23;20017;-80
2023/01/29 05:14:42;;;;;;;26.60;15.52;;;;;;;2.24;89.09;102892.53;6189030;23;20013;-80
2023/01/29 05:17:15;;;;;;;26.55;15.25;;;;;;;2.23;89.14;102892.84;6188988;23;20080;-79
2023/01/29 05:19:42;;;;;;;24.45;14.55;;;;;;;2.21;88.97;102895.03;6188852;23;20044;-80
2023/01/29 05:22:12;;;;;;;23.92;15.30;;;;;;;2.20;89.00;102890.88;6189347;23;20021;-79
2023/01/29 05:24:38;;;;;;;25.17;15.65;;;;;;;2.21;88.71;102893.19;6188578;23;20021;-81
2023/01/29 05:29:50;;;;;;;26.52;15.82;;;;;;;2.17;88.96;102897.56;6188735;23;20024;-81
2023/01/29 05:32:16;;;;;;;28.05;15.93;;;;;;;2.17;89.00;102908.06;6188859;23;20025;-79
2023/01/29 05:34:43;;;;;;;26.25;15.95;;;;;;;2.16;88.70;102903.16;6188973;23;20021;-80
2023/01/29 05:37:10;;;;;;;29.55;16.13;;;;;;;2.16;88.56;102909.16;6189293;23;20020;-80
2023/01/29 05:39:36;;;;;;;26.77;16.33;;;;;;;2.18;88.55;102903.59;6188961;23;20037;-80
2023/01/29 05:42:03;;;;;;;22.63;15.88;;;;;;;2.16;88.67;102903.91;6188546;23;20029;-81
2023/01/29 05:44:29;;;;;;;26.25;15.82;;;;;;;2.15;88.40;102899.00;6162776;23;20045;-81
2023/01/29 05:46:56;;;;;;;28.30;15.73;;;;;;;2.14;88.44;102897.47;6188743;23;20347;-80
2023/01/29 05:49:22;;;;;;;25.90;16.33;;;;;;;2.13;88.31;102899.31;6188713;23;20025;-81
2023/01/29 05:51:49;;;;;;;28.40;16.02;;;;;;;2.15;88.39;102906.88;6174588;23;20022;-81
2023/01/29 05:54:16;;;;;;;27.08;15.60;;;;;;;2.15;88.31;102906.88;6188623;23;20068;-80
2023/01/29 05:56:42;;;;;;;30.10;16.23;;;;;;;2.12;88.21;102897.78;6188291;23;20018;-82
2023/01/29 05:59:08;;;;;;;26.30;16.15;;;;;;;2.11;88.24;102884.97;6189178;23;20021;-82
2023/01/29 06:01:38;;;;;;;27.38;16.27;;;;;;;2.10;88.28;102878.19;6187582;23;20024;-82
2023/01/29 06:04:05;;;;;;;29.80;16.83;;;;;;;2.12;88.12;102878.63;6189234;23;20025;-82
2023/01/29 06:06:47;;;;;;;24.50;15.25;;;;;;;2.11;88.12;102877.84;6188893;23;20782;-82
2023/01/29 06:09:14;;;;;;;25.58;15.88;;;;;;;2.10;88.14;102873.69;6188524;23;20017;-81
2023/01/29 06:11:40;;;;;;;21.33;15.20;;;;;;;2.12;87.95;102871.50;6187868;23;20018;-81
2023/01/29 06:14:07;;;;;;;26.27;16.20;;;;;;;2.10;88.07;102865.81;6188971;23;20407;-82
2023/01/29 06:16:33;;;;;;;28.85;16.77;;;;;;;2.11;87.98;102861.31;6188680;23;20104;-82
2023/01/29 06:19:00;;;;;;;26.42;16.17;;;;;;;2.10;87.82;102867.69;6188720;23;20142;-80
2023/01/29 06:21:27;;;;;;;24.33;15.65;;;;;;;2.10;87.82;102865.81;6188686;23;20021;-80
2023/01/29 06:23:53;;;;;;;29.80;16.40;;;;;;;2.11;87.88;102856.84;6187055;23;20017;-80
2023/01/29 06:26:20;;;;;;;26.88;16.05;;;;;;;2.12;87.66;102857.59;6188058;23;20045;-80
2023/01/29 06:28:50;;;;;;;23.30;15.65;;;;;;;2.11;87.69;102856.84;6188361;23;20021;-83
2023/01/29 06:31:17;;;;;;;23.08;15.40;;;;;;;2.10;87.31;102847.41;6186924;23;20530;-80
2023/01/29 06:34:04;;;;;;;23.88;15.25;;;;;;;2.10;87.51;102846.66;6188840;23;20014;-80
2023/01/29 06:36:30;;;;;;;22.20;14.63;;;;;;;2.12;87.50;102847.84;6188565;23;20069;-79
2023/01/29 06:38:57;;;;;;;25.73;16.25;;;;;;;2.13;87.51;102848.63;6188285;23;20017;-82
2023/01/29 06:41:24;;;;;;;24.80;15.10;;;;;;;2.14;87.21;102840.41;6188553;23;20026;-80
2023/01/29 06:43:51;;;;;;;22.63;15.63;;;;;;;2.12;87.17;102847.84;6189198;23;20013;-80
2023/01/29 06:46:18;;;;;;;23.55;14.27;;;;;;;2.13;87.32;102853.88;6190703;23;20018;-79
2023/01/29 06:48:45;;;;;;;25.35;15.68;;;;;;;2.14;87.12;102844.91;6190656;23;20073;-81
2023/01/29 06:51:11;;;;;;;21.83;15.00;;;;;;;2.12;86.95;102858.38;6189263;23;20022;-82
2023/01/29 06:53:38;;;;;;;24.13;14.50;;;;;;;2.12;86.75;102853.13;6188022;23;20017;-81
2023/01/29 06:56:05;;;;;;;23.27;14.80;;;;;;;2.13;86.65;102846.00;6188631;23;20018;-82
2023/01/29 06:58:32;;;;;;;26.23;15.60;;;;;;;2.11;86.85;102845.56;6161911;23;20018;-79
2023/01/29 07:01:10;;;;;;;20.98;14.60;;;;;;;2.14;86.92;102850.16;6188245;23;20029;-79
2023/01/29 07:03:50;;;;;;;24.13;14.48;;;;;;;2.15;86.90;102849.81;6189413;23;20014;-82
2023/01/29 07:06:17;;;;;;;24.40;15.00;;;;;;;2.16;86.88;102834.81;6189168;23;20093;-79
2023/01/29 07:08:44;;;;;;;22.25;14.52;;;;;;;2.15;86.35;102844.56;6188847;23;20066;-82
2023/01/29 07:11:11;;;;;;;24.90;15.18;;;;;;;2.16;86.54;102842.72;6189584;23;20416;-79
2023/01/29 07:13:37;;;;;;;25.13;15.15;;;;;;;2.16;86.58;102846.09;6189661;23;20482;-79
2023/01/29 07:16:05;;;;;;;26.70;14.40;;;;;;;2.16;86.59;102853.22;6189933;23;20033;-81
2023/01/29 07:18:32;;;;;;;22.48;15.82;;;;;;;2.13;86.49;102846.75;6189505;23;20018;-79
2023/01/29 07:21:03;;;;;;;22.83;14.40;;;;;;;2.14;86.69;102843.03;6162696;23;20081;-79
2023/01/29 07:23:29;;;;;;;26.92;15.82;;;;;;;2.16;86.89;102845.34;6189414;23;20014;-79
2023/01/29 07:25:59;;;;;;;22.75;15.20;;;;;;;2.16;86.74;102850.59;6189217;23;20171;-80
2023/01/29 07:28:26;;;;;;;26.33;15.23;;;;;;;2.15;87.09;102852.47;6189331;23;20022;-79
2023/01/29 07:30:59;;;;;;;25.10;15.55;;;;;;;2.14;87.06;102847.53;6189295;23;20026;-79
2023/01/29 07:33:25;;;;;;;22.83;14.38;;;;;;;2.15;86.98;102835.91;6189308;23;20108;-79
2023/01/29 07:35:52;;;;;;;23.67;15.20;;;;;;;2.13;86.81;102844.13;6163333;23;20020;-81
2023/01/29 07:38:19;;;;;;;21.23;14.65;;;;;;;2.14;86.79;102850.94;6188999;23;20439;-79
2023/01/29 07:40:46;;;;;;;22.52;14.55;;;;;;;2.16;86.96;102848.72;6162898;23;20017;-78
2023/01/29 07:43:12;;;;;;;23.33;15.15;;;;;;;2.17;86.81;102837.13;6189204;23;20014;-77
2023/01/29 07:45:39;;;;;;;24.80;14.98;;;;;;;2.16;86.89;102832.19;6162763;23;20060;-78
2023/01/29 07:48:09;;;;;;;28.02;15.52;;;;;;;2.17;86.80;102826.63;6163359;23;20021;-78
2023/01/29 07:50:36;;;;;;;23.92;15.30;;;;;;;2.18;86.73;102827.38;6189433;23;20407;-78
2023/01/29 07:53:03;;;;;;;19.48;13.38;;;;;;;2.19;86.83;102824.44;6163161;23;20099;-77
2023/01/29 07:55:31;;;;;;;23.08;14.45;;;;;;;2.21;86.65;102829.34;6163046;23;20077;-79
2023/01/29 07:58:00;;;;;;;24.35;15.07;;;;;;;2.22;86.68;102821.13;6189514;23;20020;-80
2023/01/29 08:00:27;;;;;;;22.05;15.02;;;;;;;2.23;86.63;102814.03;6189492;23;20021;-79
2023/01/29 08:03:04;;;;;;;22.10;14.40;;;;;;;2.24;86.62;102808.44;6189096;23;20440;-80
2023/01/29 08:05:30;;;;;;;22.92;14.43;;;;;;;2.23;86.52;102811.38;6189554;23;20272;-79
2023/01/29 08:07:57;;;;;;;23.52;15.02;;;;;;;2.23;86.28;102811.38;6188973;23;20014;-80
2023/01/29 08:10:33;;;;;;;24.20;14.48;;;;;;;2.24;86.23;102805.81;6189289;23;20025;-80
2023/01/29 08:13:00;;;;;;;26.65;15.55;;;;;;;2.27;86.21;102805.16;6187848;23;20022;-81
2023/01/29 08:15:28;;;;;;;24.17;15.75;;;;;;;2.27;86.24;102805.16;6163423;23;20076;-79
2023/01/29 08:17:55;;;;;;;22.42;13.95;;;;;;;2.28;86.19;102796.16;6190470;23;20021;-80
2023/01/29 08:20:41;;;;;;;22.45;14.00;;;;;;;2.29;85.92;102794.28;6167013;23;20064;-80
2023/01/29 08:23:13;;;;;;;20.42;12.95;;;;;;;2.31;85.76;102794.72;6138093;23;20017;-79
2023/01/29 08:25:40;;;;;;;20.85;13.45;;;;;;;2.32;85.75;102798.91;6162787;23;20400;-80
2023/01/29 08:28:07;;;;;;;20.13;14.32;;;;;;;2.32;85.58;102797.03;6189266;23;20014;-80
2023/01/29 08:30:34;;;;;;;21.50;14.02;;;;;;;2.35;85.64;102803.47;6189355;23;20025;-79
2023/01/29 08:33:03;;;;;;;29.08;14.25;;;;;;;2.37;85.40;102801.28;6164139;23;20020;-79
2023/01/29 08:35:30;;;;;;;23.73;14.13;;;;;;;2.38;85.50;102794.94;6189530;23;20037;-83
2023/01/29 08:37:58;;;;;;;22.48;14.18;;;;;;;2.39;85.59;102793.06;6164226;23;20522;-81
2023/01/29 08:40:27;;;;;;;21.42;14.02;;;;;;;2.40;85.43;102790.09;6189745;23;20072;-80
2023/01/29 08:43:01;;;;;;;21.55;14.52;;;;;;;2.41;85.28;102783.72;6190348;23;20021;-81
2023/01/29 08:45:31;;;;;;;25.20;14.43;;;;;;;2.43;85.17;102776.28;6190020;23;20522;-80
2023/01/29 08:47:58;;;;;;;24.33;13.70;;;;;;;2.46;85.00;102778.25;6163642;23;20068;-80
2023/01/29 08:50:25;;;;;;;21.95;14.05;;;;;;;2.49;84.94;102772.31;6188573;23;20026;-79
2023/01/29 08:52:57;;;;;;;23.63;14.52;;;;;;;2.51;84.85;102770.13;6190410;23;20340;-80
2023/01/29 08:55:24;;;;;;;19.33;13.75;;;;;;;2.53;84.77;102775.81;6189959;23;20017;-80
2023/01/29 08:57:50;;;;;;;23.55;13.48;;;;;;;2.53;84.58;102772.41;6190373;23;20423;-78
2023/01/29 09:00:17;;;;;;;23.80;13.15;;;;;;;2.55;84.34;102770.22;6163177;23;20057;-78
2023/01/29 09:02:44;;;;;;;19.25;13.82;;;;;;;2.55;84.29;102772.84;6190136;23;20092;-79
2023/01/29 09:05:11;;;;;;;19.73;13.35;;;;;;;2.56;84.30;102772.50;6189090;23;20021;-77
2023/01/29 09:07:37;;;;;;;21.63;13.98;;;;;;;2.58;84.10;102766.91;6163643;23;20021;-77
2023/01/29 09:10:04;;;;;;;23.63;14.85;;;;;;;2.59;84.16;102769.22;6163767;23;20021;-78
2023/01/29 09:12:31;;;;;;;20.73;13.68;;;;;;;2.61;83.97;102769.66;6189967;23;20024;-78
2023/01/29 09:14:57;;;;;;;19.77;13.70;;;;;;;2.63;83.94;102770.09;6190139;23;20021;-79
2023/01/29 09:17:24;;;;;;;23.33;14.45;;;;;;;2.65;83.95;102767.13;6162922;23;20072;-78
2023/01/29 09:19:51;;;;;;;19.60;14.55;;;;;;;2.67;83.92;102764.91;6189800;23;20021;-78
2023/01/29 09:22:19;;;;;;;24.38;14.35;;;;;;;2.70;84.12;102764.25;6189820;23;20061;-77
2023/01/29 09:24:46;;;;;;;22.90;14.15;;;;;;;2.72;83.69;102762.06;6162915;23;20029;-76
2023/01/29 09:27:12;;;;;;;21.02;13.73;;;;;;;2.75;83.66;102766.63;6163385;23;20073;-77
2023/01/29 09:29:39;;;;;;;25.48;14.90;;;;;;;2.78;83.48;102773.09;6189771;23;20021;-77
2023/01/29 09:32:05;;;;;;;25.13;13.40;;;;;;;2.80;83.58;102776.91;6163439;23;20021;-78
2023/01/29 09:34:33;;;;;;;23.73;14.15;;;;;;;2.81;83.31;102770.53;6189218;23;20089;-77
2023/01/29 09:36:59;;;;;;;24.23;14.73;;;;;;;2.83;83.14;102773.59;6190000;23;20462;-78
2023/01/29 09:39:26;;;;;;;24.60;14.93;;;;;;;2.84;83.09;102769.84;6189804;23;20024;-79
2023/01/29 09:42:19;;;;;;;22.85;13.73;;;;;;;2.84;83.22;102769.84;6162862;23;20017;-79
2023/01/29 09:45:09;;;;;;;22.70;14.77;;;;;;;2.86;83.33;102772.91;6189784;23;20346;-78
2023/01/29 09:47:36;;;;;;;21.15;14.18;;;;;;;2.91;83.01;102770.06;6162765;23;20048;-78
2023/01/29 09:50:15;;;;;;;25.58;14.15;;;;;;;2.94;83.07;102772.00;6163630;23;20404;-77
2023/01/29 09:52:54;;;;;;;26.05;14.98;;;;;;;2.97;83.05;102763.44;6189922;23;20022;-80
2023/01/29 09:55:27;;;;;;;22.02;14.50;;;;;;;2.98;82.86;102764.22;6189722;23;20415;-80
2023/01/29 09:58:02;;;;;;;18.73;12.93;;;;;;;3.00;82.72;102768.03;6189677;23;20014;-80
2023/01/29 10:00:38;;;;;;;19.65;14.38;;;;;;;3.03;82.52;102766.59;6189614;23;20080;-80
2023/01/29 10:03:08;;;;;;;21.80;14.50;;;;;;;3.08;82.73;102765.59;6189152;23;20017;-80
2023/01/29 10:06:07;;;;;;;25.13;14.77;;;;;;;3.12;82.34;102766.44;6163276;23;20041;-79
2023/01/29 10:09:12;;;;;;;23.92;14.77;;;;;;;3.15;82.68;102769.16;6143142;23;20024;-77
2023/01/29 10:11:50;;;;;;;23.77;14.45;;;;;;;3.18;82.36;102767.72;6189801;23;20025;-78
2023/01/29 10:14:23;;;;;;;32.45;14.93;;;;;;;3.18;82.31;102760.59;6189277;23;20017;-74
2023/01/29 10:17:27;;;;;;;21.92;14.18;;;;;;;3.20;82.47;102752.34;6189593;23;20440;-77
2023/01/29 10:20:33;;;;;;;21.95;13.50;;;;;;;3.23;82.67;102752.41;6189690;23;20025;-78
2023/01/29 10:23:20;;;;;;;18.35;13.50;;;;;;;3.23;82.22;102744.50;6163889;23;20088;-78
2023/01/29 10:25:48;;;;;;;21.23;14.73;;;;;;;3.25;82.17;102750.22;6163422;23;20084;-78
2023/01/29 10:28:21;;;;;;;23.92;14.38;;;;;;;3.24;82.08;102751.31;6162362;23;20024;-78
2023/01/29 10:30:50;;;;;;;25.60;14.68;;;;;;;3.24;82.26;102745.28;6189741;23;20021;-78
2023/01/29 10:33:34;;;;;;;25.70;14.57;;;;;;;3.22;82.17;102740.34;6190971;23;20018;-78
2023/01/29 10:36:45;;;;;;;23.55;14.95;;;;;;;3.23;82.05;102727.97;6191880;23;20041;-77
2023/01/29 10:39:23;;;;;;;21.98;14.25;;;;;;;3.25;82.09;102725.75;6168395;23;20014;-80
2023/01/29 10:42:08;;;;;;;23.05;14.13;;;;;;;3.26;82.21;102719.38;6194989;23;20089;-85
2023/01/29 10:44:59;;;;;;;21.67;14.82;;;;;;;3.29;82.24;102711.56;6192810;23;20052;-79
2023/01/29 10:48:20;;;;;;;25.20;15.63;;;;;;;3.33;82.10;102711.66;6193698;23;20021;-80
2023/01/29 10:50:53;;;;;;;19.67;13.75;;;;;;;3.37;81.72;102704.59;6103591;23;20078;-79
2023/01/29 10:53:33;;;;;;;21.17;14.38;;;;;;;3.45;81.43;102697.63;6128250;23;20142;-79
2023/01/29 10:56:07;;;;;;;25.48;14.98;;;;;;;3.47;81.32;102700.69;6128488;23;20144;-80
2023/01/29 10:58:55;;;;;;;23.95;15.18;;;;;;;3.51;81.50;102691.00;6128390;23;20042;-80
2023/01/29 11:01:22;;;;;;;23.08;15.23;;;;;;;3.51;81.59;102686.50;6127232;23;20460;-79
2023/01/29 11:03:57;;;;;;;20.63;14.50;;;;;;;3.52;81.50;102689.88;6128314;23;20022;-80
2023/01/29 11:06:34;;;;;;;25.92;15.85;;;;;;;3.55;81.48;102676.03;6128099;23;20030;-79
2023/01/29 11:09:19;;;;;;;25.40;16.80;;;;;;;3.55;81.64;102682.06;6128843;23;20018;-80
2023/01/29 11:11:51;;;;;;;24.08;14.95;;;;;;;3.56;81.37;102673.06;6128353;23;20029;-80
2023/01/29 11:14:52;;;;;;;24.05;16.05;;;;;;;3.55;81.36;102679.44;6127584;23;20025;-80
2023/01/29 11:17:22;;;;;;;23.65;15.25;;;;;;;3.58;81.45;102665.59;6099045;23;20022;-80
2023/01/29 11:19:50;;;;;;;25.08;15.80;;;;;;;3.57;81.24;102669.31;6128587;23;20101;-80
2023/01/29 11:22:25;;;;;;;26.75;16.42;;;;;;;3.62;81.56;102668.25;6128212;23;20093;-78
2023/01/29 11:25:31;;;;;;;24.75;15.70;;;;;;;3.63;81.60;102667.94;6159250;23;20017;-78
2023/01/29 11:28:00;;;;;;;33.00;15.75;;;;;;;3.61;81.38;102669.38;6098337;23;20133;-78
2023/01/29 11:30:34;;;;;;;30.05;16.92;;;;;;;3.60;81.30;102659.94;6097489;23;20029;-78
2023/01/29 11:33:22;;;;;;;25.35;16.25;;;;;;;3.60;81.80;102659.94;6098000;23;20042;-80
2023/01/29 11:35:51;;;;;;;26.02;16.88;;;;;;;3.64;81.81;102663.41;6098995;23;20082;-78
2023/01/29 11:38:22;;;;;;;27.85;16.65;;;;;;;3.64;81.61;102660.78;6098543;23;20482;-79
2023/01/29 11:40:49;;;;;;;27.87;16.37;;;;;;;3.63;81.37;102654.00;6075196;23;20027;-81
2023/01/29 11:43:31;;;;;;;25.85;16.90;;;;;;;3.63;81.65;102654.75;6097666;23;20220;-77
2023/01/29 11:46:04;;;;;;;30.50;16.45;;;;;;;3.62;81.54;102650.59;6098964;23;20033;-77
2023/01/29 11:48:39;;;;;;;29.98;16.83;;;;;;;3.63;81.72;102640.81;6097952;23;20026;-81
2023/01/29 11:51:07;;;;;;;27.70;16.92;;;;;;;3.64;81.86;102632.56;6115716;23;20033;-81
2023/01/29 11:53:39;;;;;;;28.02;16.73;;;;;;;3.64;81.77;102629.94;6153893;23;20472;-81
2023/01/29 11:56:16;;;;;;;28.55;18.25;;;;;;;3.63;82.13;102631.03;6155774;23;20018;-75
2023/01/29 11:58:45;;;;;;;26.17;17.20;;;;;;;3.63;82.36;102630.28;6172443;23;20448;-81
2023/01/29 12:01:15;;;;;;;26.25;15.05;;;;;;;3.65;82.04;102630.72;6162497;23;20016;-79
2023/01/29 12:03:47;;;;;;;30.15;16.80;;;;;;;3.63;82.11;102622.38;6190610;23;20021;-82
2023/01/29 12:06:20;;;;;;;27.92;17.77;;;;;;;3.63;82.53;102625.78;6190182;23;20428;-79
2023/01/29 12:09:00;;;;;;;26.42;17.38;;;;;;;3.65;82.76;102617.53;6190426;23;20089;-78
2023/01/29 12:11:30;;;;;;;28.10;17.42;;;;;;;3.67;82.79;102616.09;6190124;23;20384;-81